Hlavní strana
METAR-TAF:

METAR-TAF

Letiště :

Port Moresby, Papua-Nová Guinea

zeměpisná šířka: 09-26S, zeměpisná délka: 147-13E, výška: 38 m

Aktuální stav počasí

Zpráva byla vytvořena před 1 hodinou a 3 minutami, v 22:00 UTC
Východojihovýchodní vítr 10 kt
Teplota 27°C
Vlhkost vzduchu 89%
Tlak 1013 hPa
Viditelnost 10 km a více
Skoro jasno ve výšce 4000 ft
zákal

METAR: AYPY 182200Z 12010KT 9999 HZ FEW040 27/25 Q1013

Čas: 09:03 (23:03 UTC)

Předpověď počasí

Zpráva byla vytvořena před 7 hodinami a 1 minutami, v 16:02 UTC
Předpověď platná od 18 v 18 UTC do 19 v 18 UTC
Severní vítr kt
Viditelnost 10 km a více
Oblačno až skoro zataženo ve výšce 3500 ft
Od 18 v 2200 UTC
Jižní vítr 7 kt
Viditelnost 10 km a více
Polojasno ve výšce 1800 ft
Polojasno ve výšce 4000 ft
Od 19 v 0400 UTC
Jižní vítr 10 kt
Viditelnost 10 km a více
Polojasno ve výšce 2000 ft
Polojasno ve výšce 14000 ft

TAF: AYPY 181602Z 1818/1918 00000KT 9999 BKN035 FM182200 18007KT 9999 SCT018 SCT040 FM190400 17010KT 9999 SCT020 SCT140

Stav a předpovědi počasí z více než 4 000 letišť (zprávy METAR a TAF).

Červené a žluté tečky na mapě představují dostupné meteorologické stanice.

Když kurzor umístíte na tečku, zobrazí se název stanice.

Pak kliknutím zobrazíte stav a předpověď počasí.

Chcete-li změnit mapu, kliknutím na zelené tlačítko se znaménkem +mapu přiblížíte, kliknutím na zelené tlačítko se znaménkem – mapu oddálíte a kliknutím na zelené šipky přejdete na sousední mapy.


METAR-TAF: